Time;durP1;ratioP1;P1;durP2;ratioP2;P2;SDS_P1;SDS_P2;PMS_P1;PMS_P2;Temp;Humidity;BMP_temperature;BMP_pressure;BME280_temperature;BME280_humidity;BME280_pressure;Samples;Min_cycle;Max_cycle;Signal;HPM_P1;HPM_P2
2021/04/21 00:00:31;;;;;;;39.72;30.65;;;;;;;7.93;100.00;101656.53;3608867;39;20103;-65
2021/04/21 00:02:59;;;;;;;43.47;30.02;;;;;;;8.03;100.00;101646.94;3609733;39;20054;-65
2021/04/21 00:05:27;;;;;;;46.67;32.15;;;;;;;8.12;100.00;101644.63;3609816;39;20048;-65
2021/04/21 00:07:55;;;;;;;40.75;30.92;;;;;;;8.11;100.00;101650.94;3609593;39;20504;-64
2021/04/21 00:10:23;;;;;;;41.95;29.42;;;;;;;8.15;100.00;101639.06;3609326;39;20119;-64
2021/04/21 00:12:53;;;;;;;47.92;33.78;;;;;;;8.02;100.00;101644.34;3609500;39;20087;-63
2021/04/21 00:15:23;;;;;;;53.58;37.00;;;;;;;7.98;100.00;101648.19;3610075;39;20047;-65
2021/04/21 00:17:53;;;;;;;44.75;33.45;;;;;;;7.98;100.00;101646.38;3610222;39;20318;-64
2021/04/21 00:20:22;;;;;;;47.55;34.15;;;;;;;7.94;100.00;101644.88;3608907;39;20119;-64
2021/04/21 00:22:56;;;;;;;47.03;34.40;;;;;;;7.91;100.00;101652.25;3610266;39;20063;-64
2021/04/21 00:25:22;;;;;;;48.47;35.38;;;;;;;7.87;100.00;101648.91;3609595;39;20051;-63
2021/04/21 00:27:52;;;;;;;48.70;35.20;;;;;;;7.84;100.00;101643.75;3610010;39;20150;-64
2021/04/21 00:30:21;;;;;;;50.40;35.67;;;;;;;7.73;100.00;101641.75;3608968;39;20063;-63
2021/04/21 00:35:36;;;;;;;45.13;32.20;;;;;;;7.81;100.00;101643.94;3560092;22;20199;-64
2021/04/21 00:38:04;;;;;;;42.67;31.55;;;;;;;7.75;100.00;101639.84;3599581;39;20082;-64
2021/04/21 00:40:39;;;;;;;48.70;32.27;;;;;;;7.65;100.00;101644.06;3599828;39;20053;-63
2021/04/21 00:43:12;;;;;;;43.45;33.53;;;;;;;7.51;100.00;101647.63;3599289;39;20052;-64
2021/04/21 00:45:41;;;;;;;48.63;35.05;;;;;;;7.43;100.00;101649.91;3599524;39;20163;-65
2021/04/21 00:48:16;;;;;;;49.15;34.15;;;;;;;7.46;100.00;101645.22;3599569;39;20370;-65
2021/04/21 00:50:50;;;;;;;41.63;31.27;;;;;;;7.61;100.00;101643.41;3599030;39;20088;-64
2021/04/21 00:53:20;;;;;;;44.95;30.75;;;;;;;7.51;100.00;101648.47;3598012;39;20051;-63
2021/04/21 00:55:55;;;;;;;43.63;31.77;;;;;;;7.41;100.00;101649.16;3664566;22;20063;-65
2021/04/21 00:58:31;;;;;;;44.65;30.95;;;;;;;7.47;100.00;101643.41;3599395;39;20400;-64
2021/04/21 01:00:57;;;;;;;44.47;31.52;;;;;;;7.54;100.00;101648.28;3599941;39;20056;-64
2021/04/21 01:03:25;;;;;;;41.97;30.33;;;;;;;7.52;100.00;101643.97;3599126;39;20322;-64
2021/04/21 01:05:57;;;;;;;50.88;33.80;;;;;;;7.31;100.00;101640.84;3597503;39;20058;-64
2021/04/21 01:08:28;;;;;;;40.28;29.90;;;;;;;7.22;100.00;101642.25;3597503;39;20039;-66
2021/04/21 01:10:58;;;;;;;45.88;33.45;;;;;;;7.25;100.00;101646.56;3598495;39;20043;-65
2021/04/21 01:13:30;;;;;;;46.63;32.88;;;;;;;7.27;100.00;101639.28;3598194;39;20056;-65
2021/04/21 01:15:57;;;;;;;42.15;30.88;;;;;;;7.14;100.00;101640.06;3599172;39;20457;-64
2021/04/21 01:18:27;;;;;;;41.15;31.27;;;;;;;7.11;100.00;101644.72;3599247;39;20052;-64
2021/04/21 01:21:03;;;;;;;39.67;31.27;;;;;;;7.07;100.00;101643.22;3598938;39;20076;-64
2021/04/21 01:24:07;;;;;;;45.83;31.52;;;;;;;6.95;100.00;101639.44;3600681;39;20044;-65
2021/04/21 01:26:47;;;;;;;46.58;31.35;;;;;;;6.83;100.00;101652.63;3589411;39;20043;-65
2021/04/21 01:29:19;;;;;;;45.47;31.58;;;;;;;6.88;100.00;101643.47;3594492;39;20054;-65
2021/04/21 01:31:47;;;;;;;42.20;29.73;;;;;;;6.78;100.00;101638.66;3600675;39;20056;-63
2021/04/21 01:34:17;;;;;;;48.38;34.15;;;;;;;6.63;100.00;101644.94;3600540;39;20138;-64
2021/04/21 01:36:46;;;;;;;45.08;32.67;;;;;;;6.65;100.00;101643.03;3600982;39;20092;-64
2021/04/21 01:39:13;;;;;;;48.60;34.13;;;;;;;6.57;100.00;101639.97;3599965;39;20398;-64
2021/04/21 01:41:43;;;;;;;45.10;32.95;;;;;;;6.55;100.00;101636.50;3599137;39;20375;-64
2021/04/21 01:44:13;;;;;;;51.88;35.55;;;;;;;6.48;100.00;101638.69;3600510;39;20036;-64
2021/04/21 01:46:42;;;;;;;47.58;34.38;;;;;;;6.43;100.00;101638.97;3600527;39;20074;-64
2021/04/21 01:49:34;;;;;;;45.20;34.20;;;;;;;6.36;100.00;101640.28;3599785;39;20053;-63
2021/04/21 01:52:07;;;;;;;52.72;36.55;;;;;;;6.26;100.00;101637.25;3599961;39;20132;-65
2021/04/21 01:54:35;;;;;;;46.40;35.70;;;;;;;6.24;100.00;101636.50;3601414;39;20044;-64
2021/04/21 01:57:11;;;;;;;49.05;35.50;;;;;;;6.21;100.00;101639.31;3600004;39;20048;-65
2021/04/21 02:02:09;;;;;;;46.10;34.42;;;;;;;6.32;100.00;101646.75;3637242;22;20052;-64
2021/04/21 02:04:48;;;;;;;49.30;35.38;;;;;;;6.24;100.00;101644.53;3609346;39;20036;-64
2021/04/21 02:07:35;;;;;;;56.35;40.13;;;;;;;6.16;100.00;101641.41;3609723;39;20036;-64
2021/04/21 02:10:16;;;;;;;51.40;38.17;;;;;;;6.12;100.00;101635.41;3610445;39;20293;-64
2021/04/21 02:13:10;;;;;;;52.70;39.33;;;;;;;6.02;100.00;101638.66;3610895;39;20047;-65
2021/04/21 02:15:56;;;;;;;51.47;38.05;;;;;;;6.01;100.00;101647.63;3605962;39;20054;-64
2021/04/21 02:18:31;;;;;;;53.70;37.78;;;;;;;5.91;100.00;101647.28;3610860;39;20404;-65
2021/04/21 02:21:05;;;;;;;54.75;40.47;;;;;;;5.82;100.00;101643.31;3610083;39;20038;-65
2021/04/21 02:23:36;;;;;;;57.00;41.50;;;;;;;5.69;100.00;101647.63;3610856;39;20043;-65
2021/04/21 02:26:10;;;;;;;52.63;37.88;;;;;;;5.70;100.00;101644.00;3609668;39;20036;-64
2021/04/21 02:28:47;;;;;;;51.97;35.90;;;;;;;5.70;100.00;101646.66;3609845;39;20128;-65
2021/04/21 02:31:22;;;;;;;53.47;36.97;;;;;;;5.71;100.00;101645.69;3610147;39;20056;-63
2021/04/21 02:33:57;;;;;;;43.40;32.42;;;;;;;5.72;100.00;101648.28;3610295;39;20039;-65
2021/04/21 02:36:28;;;;;;;47.58;34.47;;;;;;;5.61;100.00;101646.22;3609630;39;20063;-65
2021/04/21 02:38:58;;;;;;;52.80;39.10;;;;;;;5.60;100.00;101655.16;3609611;39;20051;-64
2021/04/21 02:41:33;;;;;;;55.85;38.35;;;;;;;5.63;100.00;101647.94;3610796;39;20087;-64
2021/04/21 02:44:10;;;;;;;52.05;37.42;;;;;;;5.57;100.00;101652.66;3610919;39;20036;-64
2021/04/21 02:46:42;;;;;;;56.30;37.97;;;;;;;5.54;100.00;101649.31;3610843;39;20057;-64
2021/04/21 02:52:22;;;;;;;57.72;39.45;;;;;;;5.44;100.00;101660.47;3528900;40;20189;-64
2021/04/21 02:54:59;;;;;;;53.70;37.50;;;;;;;5.38;100.00;101654.63;3532627;40;20048;-63
2021/04/21 02:57:30;;;;;;;52.45;36.47;;;;;;;5.41;100.00;101654.47;3531822;40;20047;-65
2021/04/21 03:00:04;;;;;;;54.17;37.40;;;;;;;5.34;100.00;101650.41;3532376;40;20072;-63
2021/04/21 03:02:34;;;;;;;51.42;35.83;;;;;;;5.34;100.00;101648.56;3532129;40;20402;-64
2021/04/21 03:05:07;;;;;;;57.63;38.10;;;;;;;5.44;100.00;101654.28;3531566;40;20035;-65
2021/04/21 03:07:43;;;;;;;53.90;38.63;;;;;;;5.42;100.00;101650.84;3531617;40;20479;-64
2021/04/21 03:10:13;;;;;;;55.95;40.58;;;;;;;5.34;100.00;101653.06;3531641;40;20391;-64
2021/04/21 03:12:44;;;;;;;57.63;39.80;;;;;;;5.32;100.00;101649.63;3532386;40;20077;-66
2021/04/21 03:15:16;;;;;;;56.53;40.50;;;;;;;5.28;100.00;101653.41;3531680;40;20066;-64
2021/04/21 03:17:42;;;;;;;57.00;39.75;;;;;;;5.28;100.00;101653.41;3532262;40;20068;-64
2021/04/21 03:20:14;;;;;;;55.15;38.58;;;;;;;5.29;100.00;101655.13;3531732;40;20043;-64
2021/04/21 03:22:44;;;;;;;51.00;37.90;;;;;;;5.25;100.00;101655.28;3531572;40;20230;-65
2021/04/21 03:25:13;;;;;;;60.53;39.50;;;;;;;5.29;100.00;101653.31;3531640;40;20054;-64
2021/04/21 03:27:42;;;;;;;;;;;;;;;5.31;100.00;101658.56;3533293;40;20041;-64
2021/04/21 03:30:11;;;;;;;58.03;39.27;;;;;;;5.30;100.00;101656.84;3531423;40;19934;-64
2021/04/21 03:32:41;;;;;;;66.20;44.15;;;;;;;5.21;100.00;101645.72;3532022;40;20059;-64
2021/04/21 03:35:10;;;;;;;58.60;41.45;;;;;;;5.12;100.00;101651.53;3532208;40;20042;-64
2021/04/21 03:37:47;;;;;;;58.03;37.53;;;;;;;5.21;100.00;101653.72;3532920;40;20049;-64
2021/04/21 03:40:14;;;;;;;52.22;36.00;;;;;;;5.22;100.00;101650.09;3527899;40;20118;-65
2021/04/21 03:42:42;;;;;;;51.78;35.92;;;;;;;5.25;100.00;101647.25;3532534;40;20043;-64
2021/04/21 03:45:09;;;;;;;49.30;35.20;;;;;;;5.20;100.00;101645.81;3531761;40;20036;-65
2021/04/21 03:47:36;;;;;;;55.42;37.05;;;;;;;5.07;100.00;101645.59;3532390;40;20369;-64
2021/04/21 03:50:05;;;;;;;60.60;40.40;;;;;;;5.00;100.00;101644.19;3532034;40;20039;-64
2021/04/21 03:52:32;;;;;;;;;;;;;;;5.02;100.00;101635.16;3531642;40;20055;-62
2021/04/21 03:55:00;;;;;;;53.90;37.05;;;;;;;4.97;100.00;101641.69;3532403;40;19939;-63
2021/04/21 03:57:29;;;;;;;50.10;35.58;;;;;;;4.90;100.00;101644.69;3532157;40;20496;-64
2021/04/21 03:59:56;;;;;;;;;;;;;;;4.88;100.00;101638.53;3531617;40;20396;-63
2021/04/21 04:02:26;;;;;;;60.22;39.00;;;;;;;4.70;100.00;101629.69;3531935;40;19986;-64
2021/04/21 04:04:56;;;;;;;;;;;;;;;4.80;100.00;101634.53;3532596;40;20119;-63
2021/04/21 04:07:27;;;;;;;54.00;36.00;;;;;;;4.90;100.00;101634.00;3531444;40;20006;-63
2021/04/21 04:09:54;;;;;;;48.50;35.70;;;;;;;4.99;100.00;101647.78;3531777;40;20095;-63
2021/04/21 04:12:25;;;;;;;53.47;37.20;;;;;;;4.87;100.00;101650.19;3531647;40;20334;-64
2021/04/21 04:14:54;;;;;;;51.80;35.97;;;;;;;4.86;100.00;101643.09;3532515;40;20113;-63
2021/04/21 04:17:22;;;;;;;55.20;36.22;;;;;;;4.72;100.00;101651.81;3531841;40;20062;-63
2021/04/21 04:19:50;;;;;;;55.30;36.92;;;;;;;4.71;100.00;101638.56;3531028;40;20097;-63
2021/04/21 04:22:19;;;;;;;51.67;35.75;;;;;;;4.76;100.00;101651.69;3531643;40;20039;-64
2021/04/21 04:24:48;;;;;;;50.23;36.37;;;;;;;4.79;100.00;101646.19;3531609;40;20420;-65
2021/04/21 04:27:16;;;;;;;51.60;34.95;;;;;;;4.77;100.00;101645.38;3530945;40;20386;-64
2021/04/21 04:29:44;;;;;;;52.45;37.60;;;;;;;4.71;100.00;101650.09;3531512;40;20245;-63
2021/04/21 04:32:13;;;;;;;47.60;35.00;;;;;;;4.75;100.00;101648.13;3530710;40;20063;-63
2021/04/21 04:34:42;;;;;;;51.95;37.05;;;;;;;4.70;100.00;101647.50;3532216;40;20050;-65
2021/04/21 04:37:09;;;;;;;50.72;34.67;;;;;;;4.80;100.00;101654.09;3531025;40;20053;-63
2021/04/21 04:39:36;;;;;;;53.30;37.35;;;;;;;4.80;100.00;101656.75;3531436;40;20062;-63
2021/04/21 04:42:03;;;;;;;51.85;34.58;;;;;;;4.81;100.00;101661.13;3531923;40;20047;-63
2021/04/21 04:44:30;;;;;;;50.30;34.80;;;;;;;4.72;100.00;101657.13;3532201;40;20081;-63
2021/04/21 04:47:02;;;;;;;51.67;35.75;;;;;;;4.79;100.00;101662.19;3531976;40;20045;-63
2021/04/21 04:49:32;;;;;;;49.20;35.25;;;;;;;4.67;100.00;101663.66;3526882;40;20067;-63
2021/04/21 04:52:00;;;;;;;55.88;38.20;;;;;;;4.64;100.00;101669.13;3532275;40;20062;-64
2021/04/21 04:54:27;;;;;;;54.70;39.07;;;;;;;4.75;100.00;101672.13;3530519;40;20157;-63
2021/04/21 04:56:54;;;;;;;55.10;37.83;;;;;;;4.80;100.00;101675.44;3530894;40;20057;-64
2021/04/21 04:59:24;;;;;;;52.28;37.83;;;;;;;4.83;100.00;101675.28;3531643;40;20097;-64
2021/04/21 05:01:56;;;;;;;53.03;38.30;;;;;;;4.89;100.00;101674.09;3531418;40;20059;-65
2021/04/21 05:04:27;;;;;;;55.83;39.95;;;;;;;4.98;100.00;101670.09;3531657;40;20446;-64
2021/04/21 05:06:58;;;;;;;53.15;38.47;;;;;;;5.09;100.00;101665.91;3531970;40;20055;-63
2021/04/21 05:09:29;;;;;;;55.45;37.80;;;;;;;5.21;100.00;101679.53;3532092;40;20047;-64
2021/04/21 05:11:57;;;;;;;54.97;37.28;;;;;;;5.16;100.00;101684.28;3531927;40;20046;-63
2021/04/21 05:14:25;;;;;;;57.05;38.95;;;;;;;5.30;100.00;101679.06;3531541;40;20074;-63
2021/04/21 05:17:48;;;;;;;56.95;37.85;;;;;;;5.43;100.00;101680.13;3532050;40;20069;-64
2021/04/21 05:20:53;;;;;;;55.33;37.92;;;;;;;5.56;100.00;101685.66;3530263;40;20066;-64
2021/04/21 05:23:57;;;;;;;54.10;38.90;;;;;;;5.57;100.00;101687.38;3529997;40;20118;-64
2021/04/21 05:27:03;;;;;;;56.60;38.22;;;;;;;5.58;100.00;101683.78;3530162;40;20137;-64
2021/04/21 05:29:53;;;;;;;52.08;37.42;;;;;;;5.63;100.00;101688.00;3529616;40;20043;-65
2021/04/21 05:32:54;;;;;;;54.35;38.50;;;;;;;5.79;100.00;101687.06;3529842;40;20059;-64
2021/04/21 05:36:14;;;;;;;55.13;38.80;;;;;;;6.00;100.00;101686.00;3531581;40;20360;-64
2021/04/21 05:39:23;;;;;;;61.92;42.05;;;;;;;5.88;100.00;101696.38;3531375;40;20326;-64
2021/04/21 05:42:46;;;;;;;55.22;38.65;;;;;;;6.19;100.00;101700.03;3531354;40;20352;-64
2021/04/21 05:45:36;;;;;;;48.38;35.58;;;;;;;6.29;100.00;101701.25;3530977;40;20047;-63
2021/04/21 05:48:28;;;;;;;48.53;36.15;;;;;;;6.54;100.00;101694.50;3531915;40;20066;-64
2021/04/21 05:51:32;;;;;;;50.47;37.78;;;;;;;6.74;100.00;101697.81;3531935;40;20071;-63
2021/04/21 05:54:31;;;;;;;69.40;46.67;;;;;;;6.91;100.00;101699.50;3531779;40;20039;-63
2021/04/21 05:57:35;;;;;;;74.68;49.10;;;;;;;7.11;100.00;101704.50;3530827;40;20417;-64
2021/04/21 06:00:18;;;;;;;73.15;47.58;;;;;;;7.24;100.00;101709.94;3529991;40;20358;-65
2021/04/21 06:02:46;;;;;;;67.85;47.17;;;;;;;7.35;100.00;101715.53;3532091;40;20054;-65
2021/04/21 06:05:14;;;;;;;70.05;47.38;;;;;;;7.42;100.00;101712.47;3530603;40;20043;-64
2021/04/21 06:07:40;;;;;;;63.08;44.38;;;;;;;7.64;100.00;101715.56;3533067;40;20044;-64
2021/04/21 06:10:24;;;;;;;57.92;43.30;;;;;;;7.94;100.00;101719.91;3531985;40;20063;-64
2021/04/21 06:12:55;;;;;;;60.28;41.83;;;;;;;8.03;100.00;101713.97;3531969;40;20039;-65
2021/04/21 06:15:26;;;;;;;55.95;42.00;;;;;;;8.06;100.00;101721.81;3532351;40;20091;-64
2021/04/21 06:17:54;;;;;;;56.40;40.20;;;;;;;8.06;100.00;101729.84;3532831;40;20087;-63
2021/04/21 06:20:29;;;;;;;52.53;40.60;;;;;;;8.13;100.00;101724.13;3527272;40;20411;-64
2021/04/21 06:22:59;;;;;;;52.70;37.55;;;;;;;8.23;100.00;101730.59;3530026;40;20130;-63
2021/04/21 06:25:27;;;;;;;52.50;39.63;;;;;;;8.29;100.00;101724.84;3532231;40;20065;-64
2021/04/21 06:28:06;;;;;;;55.17;36.95;;;;;;;8.53;100.00;101726.91;3531706;40;20425;-66
2021/04/21 06:30:33;;;;;;;48.80;36.17;;;;;;;8.58;100.00;101731.00;3532709;40;20318;-63
2021/04/21 06:32:59;;;;;;;45.80;34.72;;;;;;;8.71;100.00;101722.97;3529922;40;20380;-64
2021/04/21 06:35:29;;;;;;;42.10;33.17;;;;;;;8.71;100.00;101733.72;3527379;40;20062;-64
2021/04/21 06:37:55;;;;;;;50.90;36.78;;;;;;;8.72;100.00;101740.81;3532429;40;20064;-65
2021/04/21 06:40:25;;;;;;;45.78;34.50;;;;;;;8.65;100.00;101739.50;3531308;40;20079;-66
2021/04/21 06:42:52;;;;;;;47.33;34.15;;;;;;;8.72;100.00;101738.13;3532885;40;20073;-64
2021/04/21 06:45:23;;;;;;;44.58;33.83;;;;;;;8.82;100.00;101733.00;3531457;40;20094;-65
2021/04/21 06:47:49;;;;;;;40.28;31.50;;;;;;;8.93;100.00;101741.19;3531328;40;20045;-64
2021/04/21 06:50:16;;;;;;;40.38;31.55;;;;;;;9.08;100.00;101744.69;3531527;40;20062;-64
2021/04/21 06:52:43;;;;;;;37.50;29.05;;;;;;;9.15;100.00;101739.72;3532235;40;20429;-64
2021/04/21 06:55:11;;;;;;;39.40;29.13;;;;;;;9.24;100.00;101744.47;3531445;40;20377;-64
2021/04/21 06:57:38;;;;;;;35.65;26.13;;;;;;;9.36;100.00;101748.13;3532703;40;20054;-64
2021/04/21 07:00:10;;;;;;;34.53;27.50;;;;;;;9.29;100.00;101738.78;3528260;40;20063;-64
2021/04/21 07:02:38;;;;;;;35.67;26.83;;;;;;;9.34;100.00;101742.00;3528798;40;20074;-63
2021/04/21 07:05:07;;;;;;;36.15;26.67;;;;;;;9.32;100.00;101749.31;3532735;40;20137;-64
2021/04/21 07:07:34;;;;;;;35.70;27.88;;;;;;;9.49;100.00;101755.34;3532166;40;20062;-65
2021/04/21 07:10:01;;;;;;;37.60;26.92;;;;;;;9.45;100.00;101755.56;3532423;40;20142;-66
2021/04/21 07:12:28;;;;;;;31.75;24.67;;;;;;;9.72;100.00;101757.28;3531900;40;20074;-65
2021/04/21 07:14:54;;;;;;;31.83;25.38;;;;;;;9.70;100.00;101755.66;3532620;40;20123;-63
2021/04/21 07:17:21;;;;;;;29.80;23.50;;;;;;;9.81;100.00;101753.94;3532305;40;20054;-64
2021/04/21 07:19:48;;;;;;;31.25;23.73;;;;;;;9.95;100.00;101761.03;3532100;40;20050;-65
2021/04/21 07:22:16;;;;;;;29.10;21.88;;;;;;;9.93;100.00;101756.72;3531855;40;20038;-62
2021/04/21 07:24:45;;;;;;;34.28;22.70;;;;;;;10.08;100.00;101760.97;3532920;40;20409;-65
2021/04/21 07:27:12;;;;;;;35.33;21.73;;;;;;;10.18;100.00;101762.03;3533092;40;20161;-65
2021/04/21 07:29:39;;;;;;;23.80;18.85;;;;;;;10.47;100.00;101759.09;3529023;40;20054;-65
2021/04/21 07:32:24;;;;;;;24.65;18.30;;;;;;;10.63;100.00;101766.88;3529298;40;20327;-65
2021/04/21 07:35:00;;;;;;;23.27;16.83;;;;;;;10.63;100.00;101766.88;3531887;40;20054;-66
2021/04/21 07:37:33;;;;;;;23.80;17.45;;;;;;;10.67;100.00;101771.06;3531840;40;20094;-66
2021/04/21 07:39:59;;;;;;;26.05;16.55;;;;;;;10.90;100.00;101773.03;3532706;40;20043;-65
2021/04/21 07:42:25;;;;;;;25.48;17.80;;;;;;;10.98;100.00;101774.16;3532844;40;20182;-65
2021/04/21 07:44:54;;;;;;;24.48;17.38;;;;;;;11.16;100.00;101774.59;3531627;40;20070;-65
2021/04/21 07:47:21;;;;;;;26.27;17.42;;;;;;;11.19;100.00;101777.03;3533192;40;20058;-64
2021/04/21 07:49:55;;;;;;;25.25;18.45;;;;;;;11.25;100.00;101777.53;3532283;40;20546;-64
2021/04/21 07:52:23;;;;;;;24.55;18.85;;;;;;;11.42;100.00;101779.78;3532262;40;20093;-65
2021/04/21 07:54:49;;;;;;;25.90;20.08;;;;;;;11.53;100.00;101774.44;3627475;22;20306;-68
2021/04/21 07:57:19;;;;;;;27.67;19.48;;;;;;;11.85;100.00;101789.91;3539365;40;20058;-64
2021/04/21 07:59:46;;;;;;;31.05;20.45;;;;;;;11.77;100.00;101788.81;3540888;40;20094;-65
2021/04/21 08:02:16;;;;;;;30.35;22.52;;;;;;;11.75;100.00;101794.31;3539636;40;20157;-66
2021/04/21 08:04:51;;;;;;;30.55;22.85;;;;;;;11.62;100.00;101790.88;3538614;40;20039;-66
2021/04/21 08:07:35;;;;;;;32.38;23.83;;;;;;;11.80;100.00;101794.81;3540853;40;20047;-67
2021/04/21 08:10:05;;;;;;;30.95;24.63;;;;;;;11.92;100.00;101791.16;3540925;40;20049;-66
2021/04/21 08:12:34;;;;;;;31.63;24.38;;;;;;;12.15;100.00;101801.13;3538737;40;20042;-65
2021/04/21 08:15:03;;;;;;;31.33;23.60;;;;;;;11.87;100.00;101809.53;3541691;40;20043;-65
2021/04/21 08:17:29;;;;;;;33.42;25.33;;;;;;;12.06;100.00;101800.84;3541291;40;20048;-67
2021/04/21 08:19:57;;;;;;;36.20;25.55;;;;;;;12.26;100.00;101803.78;3540954;40;20414;-66
2021/04/21 08:22:26;;;;;;;42.40;26.63;;;;;;;12.23;100.00;101809.44;3540837;40;20038;-67
2021/04/21 08:24:53;;;;;;;36.57;26.57;;;;;;;12.40;100.00;101802.69;3540730;40;20136;-66
2021/04/21 08:27:20;;;;;;;41.00;27.42;;;;;;;12.68;100.00;101812.06;3539866;40;20116;-67
2021/04/21 08:29:47;;;;;;;37.03;26.30;;;;;;;12.12;100.00;101810.31;3540381;40;20058;-66
2021/04/21 08:32:16;;;;;;;41.20;27.67;;;;;;;12.24;100.00;101814.72;3540538;40;20053;-66
2021/04/21 08:34:43;;;;;;;37.65;26.52;;;;;;;12.45;100.00;101822.06;3541162;40;20291;-67
2021/04/21 08:37:10;;;;;;;35.30;25.40;;;;;;;12.79;100.00;101814.75;3539123;40;20043;-64
2021/04/21 08:39:37;;;;;;;41.10;26.17;;;;;;;12.53;100.00;101829.53;3540043;40;20093;-67
2021/04/21 08:42:07;;;;;;;36.83;25.40;;;;;;;13.06;100.00;101828.78;3540289;40;20129;-66
2021/04/21 08:44:40;;;;;;;38.33;25.23;;;;;;;13.27;100.00;101824.28;3541073;40;20053;-66
2021/04/21 08:47:06;;;;;;;37.38;25.27;;;;;;;12.80;100.00;101827.25;3540203;40;20043;-66
2021/04/21 08:49:36;;;;;;;40.78;25.15;;;;;;;12.56;100.00;101832.00;3540284;40;20143;-65
2021/04/21 08:52:03;;;;;;;36.05;22.95;;;;;;;12.60;100.00;101838.84;3539573;40;20050;-66
2021/04/21 08:54:33;;;;;;;37.03;21.90;;;;;;;12.85;100.00;101820.63;3539726;40;20046;-66
2021/04/21 08:57:00;;;;;;;35.97;22.95;;;;;;;13.05;100.00;101840.59;3540110;40;20384;-66
2021/04/21 08:59:27;;;;;;;34.08;21.25;;;;;;;12.95;100.00;101851.28;3539780;40;20050;-66
2021/04/21 09:01:54;;;;;;;32.88;20.77;;;;;;;12.66;100.00;101845.59;3538956;40;20057;-65
2021/04/21 09:04:20;;;;;;;33.97;21.65;;;;;;;12.74;100.00;101843.13;3539846;40;20313;-66
2021/04/21 09:06:47;;;;;;;33.08;21.33;;;;;;;12.93;100.00;101848.72;3538027;40;20059;-66
2021/04/21 09:09:14;;;;;;;32.65;20.23;;;;;;;12.71;100.00;101856.91;3538741;40;20113;-68
2021/04/21 09:11:41;;;;;;;32.28;20.70;;;;;;;12.72;100.00;101858.59;3540348;40;20062;-66
2021/04/21 09:14:08;;;;;;;31.90;20.80;;;;;;;12.62;100.00;101869.31;3539601;40;20129;-67
2021/04/21 09:16:34;;;;;;;32.40;20.60;;;;;;;12.52;100.00;101855.69;3541626;40;20068;-66
2021/04/21 09:19:11;;;;;;;31.35;20.52;;;;;;;12.42;100.00;101866.34;3540557;40;20053;-67
2021/04/21 09:21:38;;;;;;;34.33;21.23;;;;;;;12.50;100.00;101857.66;3541407;40;20046;-66
2021/04/21 09:24:06;;;;;;;34.38;20.42;;;;;;;12.73;100.00;101863.00;3539270;40;20153;-67
2021/04/21 09:26:34;;;;;;;34.88;21.05;;;;;;;12.69;100.00;101862.41;3539606;40;20086;-66
2021/04/21 09:29:01;;;;;;;30.40;19.65;;;;;;;12.81;100.00;101874.06;3539375;40;20043;-66
2021/04/21 09:31:29;;;;;;;33.20;20.52;;;;;;;12.97;100.00;101882.63;3540633;40;20049;-67
2021/04/21 09:34:08;;;;;;;33.72;20.10;;;;;;;13.21;100.00;101883.41;3539528;40;20051;-66
2021/04/21 09:36:36;;;;;;;30.98;20.33;;;;;;;13.34;100.00;101865.22;3540722;40;20175;-66
2021/04/21 09:39:13;;;;;;;32.33;19.75;;;;;;;13.98;100.00;101866.06;3540426;40;20413;-67
2021/04/21 09:41:40;;;;;;;31.50;20.23;;;;;;;13.90;100.00;101863.16;3541671;40;20148;-67
2021/04/21 09:44:19;;;;;;;31.88;19.52;;;;;;;14.04;100.00;101859.28;3542595;40;20062;-67
2021/04/21 09:46:47;;;;;;;30.75;20.13;;;;;;;14.15;100.00;101864.59;3542901;40;20730;-66
2021/04/21 09:49:30;;;;;;;30.42;19.80;;;;;;;13.40;100.00;101875.50;3540085;40;20047;-66
2021/04/21 09:51:57;;;;;;;31.95;20.17;;;;;;;13.36;100.00;101865.94;3542692;40;20308;-66
2021/04/21 09:54:35;;;;;;;38.38;20.35;;;;;;;13.52;100.00;101868.19;3540938;40;20046;-66
2021/04/21 09:57:12;;;;;;;31.17;21.43;;;;;;;14.24;100.00;101862.94;3543097;40;20042;-66
2021/04/21 09:59:41;;;;;;;30.45;20.90;;;;;;;14.04;100.00;101864.69;3542560;40;20321;-65
2021/04/21 10:02:29;;;;;;;35.67;22.60;;;;;;;13.84;100.00;101868.13;3543465;40;20043;-67
2021/04/21 10:04:56;;;;;;;31.33;20.90;;;;;;;14.11;100.00;101866.72;3541166;40;20320;-66
2021/04/21 10:07:22;;;;;;;34.05;21.20;;;;;;;14.07;100.00;101873.38;3542209;40;20067;-66
2021/04/21 10:09:56;;;;;;;38.20;23.15;;;;;;;13.32;100.00;101881.53;3543132;40;20319;-66
2021/04/21 10:12:23;;;;;;;35.58;22.50;;;;;;;12.85;100.00;101882.75;3543018;40;20046;-67
2021/04/21 10:15:03;;;;;;;33.33;21.60;;;;;;;12.94;100.00;101893.69;3543293;40;20407;-66
2021/04/21 10:17:31;;;;;;;34.95;21.38;;;;;;;13.20;100.00;101887.94;3542667;40;20046;-65
2021/04/21 10:19:58;;;;;;;32.72;22.17;;;;;;;13.06;100.00;101896.34;3540400;40;20605;-66
2021/04/21 10:22:25;;;;;;;32.30;20.92;;;;;;;12.99;100.00;101887.91;3539466;40;20083;-65
2021/04/21 10:24:51;;;;;;;29.20;19.20;;;;;;;13.01;100.00;101888.63;3539938;40;20082;-65
2021/04/21 10:27:17;;;;;;;28.33;17.73;;;;;;;12.87;100.00;101897.03;3538597;40;20168;-65
2021/04/21 10:29:43;;;;;;;25.80;16.83;;;;;;;12.66;100.00;101892.38;3538177;40;20057;-66
2021/04/21 10:32:10;;;;;;;35.78;18.35;;;;;;;12.70;100.00;101893.84;3539292;40;20086;-66
2021/04/21 10:34:37;;;;;;;30.17;18.88;;;;;;;12.64;100.00;101901.59;3539168;40;20058;-66
2021/04/21 10:37:04;;;;;;;27.05;18.08;;;;;;;12.49;100.00;101899.13;3539359;40;20148;-66
2021/04/21 10:39:32;;;;;;;26.13;17.92;;;;;;;12.41;100.00;101902.47;3539805;40;20054;-65
2021/04/21 10:42:03;;;;;;;23.27;17.40;;;;;;;12.31;100.00;101901.47;3539044;40;20361;-65
2021/04/21 10:44:31;;;;;;;25.83;16.90;;;;;;;12.31;100.00;101909.56;3540027;40;20062;-64
2021/04/21 10:47:07;;;;;;;25.73;17.75;;;;;;;11.98;100.00;101910.38;3539707;40;20065;-66
2021/04/21 10:49:35;;;;;;;26.33;18.15;;;;;;;11.91;100.00;101910.81;3539438;40;20065;-66
2021/04/21 10:52:11;;;;;;;28.25;18.02;;;;;;;11.71;100.00;101925.00;3539545;40;20050;-65
2021/04/21 10:54:37;;;;;;;23.80;17.08;;;;;;;11.73;100.00;101909.53;3539091;40;20042;-65
2021/04/21 10:57:30;;;;;;;26.83;17.05;;;;;;;11.91;100.00;101912.63;3538712;40;20101;-68
2021/04/21 11:00:12;;;;;;;21.75;15.13;;;;;;;11.82;100.00;101924.16;3538499;40;20433;-66
2021/04/21 11:02:56;;;;;;;18.48;13.23;;;;;;;11.73;100.00;101920.31;3539758;40;20371;-67
2021/04/21 11:05:28;;;;;;;21.23;14.00;;;;;;;11.59;100.00;101926.78;3538441;40;20063;-66
2021/04/21 11:08:04;;;;;;;19.40;12.35;;;;;;;11.52;100.00;101922.81;3538885;40;20069;-65
2021/04/21 11:10:40;;;;;;;17.27;11.43;;;;;;;11.61;100.00;101923.97;3538321;40;20048;-65
2021/04/21 11:13:08;;;;;;;15.35;10.45;;;;;;;11.55;100.00;101926.13;3542451;40;20447;-67
2021/04/21 11:15:39;;;;;;;17.20;9.15;;;;;;;11.70;100.00;101934.03;3542234;40;20149;-66
2021/04/21 11:20:59;;;;;;;9.45;7.55;;;;;;;11.92;100.00;101931.44;3596108;23;20044;-66
2021/04/21 11:24:08;;;;;;;10.60;6.32;;;;;;;12.49;100.00;101936.94;3570778;40;20041;-65
2021/04/21 11:26:45;;;;;;;10.45;4.88;;;;;;;12.52;100.00;101938.53;3571698;40;20045;-66
2021/04/21 11:29:14;;;;;;;11.80;4.90;;;;;;;12.88;100.00;101939.25;3571238;40;20159;-66
2021/04/21 11:32:14;;;;;;;7.35;3.92;;;;;;;12.82;100.00;101932.50;3569899;40;20118;-66
2021/04/21 11:34:41;;;;;;;7.45;3.45;;;;;;;12.84;100.00;101930.53;3561478;40;20384;-66
2021/04/21 11:37:15;;;;;;;6.75;3.63;;;;;;;13.08;100.00;101932.22;3568965;40;20080;-67
2021/04/21 11:40:05;;;;;;;6.03;3.33;;;;;;;13.23;100.00;101940.91;3568749;40;20051;-65
2021/04/21 11:42:40;;;;;;;7.40;3.78;;;;;;;13.08;100.00;101929.53;3569136;40;20054;-66